• Join FlightAware (Why Join?)
  • Login
  • US Flag 
08:05AM EST


 

Airport Tracker/Info


-or-


 

Live Flight TrackerFlight Track Log ✈ FSR411 ✈ 25-Feb-2014 ✈ KCMI - KMDW

Flight Track Log - Related Links

Times and Time Zones

All times are in EST time to prevent confusion due to time zone crossing. See the FSR411 flight status page for this flight to view local times or setup timezone preferences in your user account.

Time Position Orientation Groundspeed Altitude Reporting Facility
EST Latitude Longitude Course Direction KTS MPH feet Rate Location/Type
07:36AM 40.1053 -88.3094 353° North 214 246 11,000  Level Chicago Center
07:37AM 40.1611 -88.3178 353° North 231 266 7,200 -360 Descending Chicago Center
07:38AM 40.2383 -88.3306 353° North 250 288 10,300 1,860 Climbing Chicago Center
07:39AM 40.3175 -88.3422 354° North 276 318 11,000 300 Climbing Chicago Center
07:40AM 40.4094 -88.3558 354° North 321 369 11,000  Level Chicago Center
07:41AM 40.4916 -88.3542 353° North  Level FlightAware Approximate
07:41AM 40.5003 -88.3700 353° North 328 377 11,000  Level Chicago Center
07:42AM 40.5922 -88.3847 353° North 332 382 11,000  Level Chicago Center
07:43AM 40.6850 -88.3983 354° North 334 384 11,000  Level Chicago Center
07:44AM 40.7956 -88.4172 353° North 333 383 11,000 -420 Level Chicago Center
07:45AM 40.8883 -88.4314 353° North 335 386 10,200 -540 Descending Chicago Center
07:46AM 40.9792 -88.4450 354° North 331 381 10,000 -120 Descending Chicago Center
07:47AM 41.0731 -88.4597 353° North 323 372 10,000 -360 Level Chicago Center
07:48AM 41.1506 -88.4719 353° North 280 322 9,300 -1,380 Descending Chicago Center
07:49AM 41.2219 -88.4822 354° North 258 297 7,200 -1,620 Descending Chicago Center
07:50AM 41.2953 -88.4953 352° North 248 285 6,000 -600 Descending Chicago Center
07:51AM 41.3606 -88.5050 354° North 238 274 6,000  Level Chicago Center
07:52AM 41.4161 -88.4411 41° Northeast 270 311 6,000 -180 Level Chicago Center
07:53AM 41.4544 -88.3461 62° Northeast 275 316 5,700 -540 Descending Chicago Center
07:54AM 41.4792 -88.2500 71° East 274 315 5,000 -360 Descending Chicago Center
07:55AM 41.5044 -88.1567 70° East 271 312 5,000  Level Chicago Center
07:56AM 41.5317 -88.0564 70° East 272 313 5,000  Level Chicago Center
07:57AM 41.5572 -87.9578 71° East 281 323 5,000 -300 Level Chicago Center
07:58AM 41.5825 -87.8639 70° East 272 313 4,400 -900 Descending Chicago Center
07:59AM 41.5975 -87.7667 78° East 257 296 3,200 -720 Descending Chicago Center
08:00AM 41.6092 -87.6750 80° East 237 273 3,000 -180 Descending Chicago Center
08:01AM 41.6528 -87.6756 359° North 172 198 2,900 -300 Descending Chicago Center
08:02AM 41.6989 -87.6942 343° North 157 181 2,500 -540 Descending Chicago Center
08:03AM 41.7397 -87.7081 346° North 152 175 1,900 -780 Descending Chicago Center
08:04AM 41.7722 -87.7356 328° Northwest 123 142 1,000 -540 Descending Chicago Center
08:05AM 41.7933 -87.7664 313° West 119 137 800 -240 Descending Chicago Center